createdAt,value
2023-10-23T00:00:58.101Z,8.48
2023-10-23T00:06:00.003Z,8.98
2023-10-23T00:11:07.054Z,7.10
2023-10-23T00:16:09.015Z,9.15
2023-10-23T00:21:13.425Z,8.63
2023-10-23T00:26:15.336Z,7.20
2023-10-23T00:31:29.008Z,9.32
2023-10-23T00:36:31.008Z,9.27
2023-10-23T00:41:37.545Z,9.15
2023-10-23T00:46:39.648Z,8.38
2023-10-23T00:51:51.256Z,10.55
2023-10-23T00:56:53.315Z,9.85
2023-10-23T01:01:55.368Z,11.95
2023-10-23T01:07:00.408Z,10.07
2023-10-23T01:12:16.840Z,10.13
2023-10-23T01:17:18.981Z,11.65
2023-10-23T01:22:20.930Z,11.13
2023-10-23T01:27:22.997Z,10.13
2023-10-23T01:32:25.141Z,10.80
2023-10-23T01:37:27.400Z,8.60
2023-10-23T01:42:34.083Z,7.50
2023-10-23T01:47:36.170Z,7.72
2023-10-23T01:52:38.765Z,7.50
2023-10-23T01:57:40.766Z,6.43
2023-10-23T02:02:45.077Z,6.43
2023-10-23T02:07:47.048Z,7.15
2023-10-23T02:12:49.105Z,7.97
2023-10-23T02:17:52.293Z,9.75
2023-10-23T02:22:54.628Z,10.25
2023-10-23T02:27:56.677Z,9.13
2023-10-23T02:33:01.023Z,9.10
2023-10-23T02:38:04.276Z,8.13
2023-10-23T02:43:07.401Z,10.68
2023-10-23T02:48:09.746Z,10.95
2023-10-23T02:53:11.691Z,11.73
2023-10-23T02:58:14.710Z,12.32
2023-10-23T03:03:16.787Z,10.98
2023-10-23T03:08:19.916Z,12.40
2023-10-23T03:13:21.930Z,12.50
2023-10-23T03:18:23.969Z,11.85
2023-10-23T03:23:28.610Z,9.30
2023-10-23T03:28:30.694Z,10.38
2023-10-23T03:33:33.990Z,10.60
2023-10-23T03:38:36.288Z,10.73
2023-10-23T03:43:38.373Z,11.25
2023-10-23T03:48:40.425Z,10.55
2023-10-23T03:53:49.409Z,11.65
2023-10-23T03:58:51.493Z,11.77
2023-10-23T04:03:54.531Z,10.98
2023-10-23T04:08:56.664Z,10.85
2023-10-23T04:13:58.750Z,11.55
2023-10-23T04:19:00.812Z,11.88
2023-10-23T04:24:02.790Z,9.93
2023-10-23T04:29:04.877Z,9.02
2023-10-23T04:34:06.918Z,10.68
2023-10-23T04:39:08.965Z,10.77
2023-10-23T04:44:11.922Z,10.85
2023-10-23T04:49:17.974Z,9.10
2023-10-23T04:54:19.966Z,12.57
2023-10-23T04:59:22.311Z,12.88
2023-10-23T05:04:35.187Z,12.60
2023-10-23T05:09:43.502Z,14.40
2023-10-23T05:14:46.149Z,13.75
2023-10-23T05:19:49.272Z,13.18
2023-10-23T05:24:51.708Z,12.38
2023-10-23T05:29:56.003Z,13.52
2023-10-23T05:34:59.368Z,14.98
2023-10-23T05:40:26.464Z,14.88
2023-10-23T05:45:39.362Z,13.65
2023-10-23T05:51:02.270Z,15.07
2023-10-23T05:56:12.405Z,15.70
2023-10-23T06:01:22.048Z,15.05
2023-10-23T06:06:28.149Z,15.23
2023-10-23T06:11:30.369Z,14.50
2023-10-23T06:16:32.469Z,14.30
2023-10-23T06:21:36.648Z,14.30
2023-10-23T06:31:46.485Z,12.98
2023-10-23T06:36:51.002Z,14.18
2023-10-23T06:41:54.299Z,13.57
2023-10-23T06:46:56.446Z,14.93
2023-10-23T06:51:58.610Z,14.95
2023-10-23T06:57:07.566Z,14.85
2023-10-23T07:02:10.739Z,15.60
2023-10-23T07:07:28.631Z,14.60
2023-10-23T07:12:32.144Z,15.77
2023-10-23T07:17:42.229Z,16.13
2023-10-23T07:22:48.766Z,18.02
2023-10-23T07:27:51.801Z,16.73
2023-10-23T07:32:53.954Z,14.82
2023-10-23T07:37:57.075Z,15.75
2023-10-23T07:43:01.471Z,16.15
2023-10-23T07:48:07.748Z,17.23
2023-10-23T07:53:10.709Z,17.20
2023-10-23T07:58:17.536Z,14.65
2023-10-23T08:03:19.882Z,16.40
2023-10-23T08:08:22.092Z,18.35
2023-10-23T08:13:30.135Z,18.10
2023-10-23T08:18:37.953Z,17.55
2023-10-23T08:23:45.426Z,16.05
2023-10-23T08:29:01.242Z,16.88
2023-10-23T08:34:15.567Z,15.98
2023-10-23T08:39:21.230Z,15.95
2023-10-23T08:44:26.612Z,12.40
2023-10-23T08:49:35.027Z,14.32
2023-10-23T08:54:42.017Z,15.05
2023-10-23T08:59:49.081Z,13.90
2023-10-23T09:04:51.319Z,15.18
2023-10-23T09:10:09.510Z,13.07
2023-10-23T09:15:15.473Z,13.05
2023-10-23T09:20:17.634Z,12.57
2023-10-23T09:25:24.047Z,11.93
2023-10-23T09:30:28.350Z,13.93
2023-10-23T09:35:40.917Z,14.27
2023-10-23T09:40:48.923Z,13.60
2023-10-23T09:45:56.997Z,12.45
2023-10-23T09:51:02.504Z,14.27
2023-10-23T09:56:10.109Z,7.25
2023-10-23T10:01:16.452Z,7.20
2023-10-23T10:06:25.058Z,6.38
2023-10-23T10:11:28.536Z,8.02
2023-10-23T10:16:31.780Z,6.57
2023-10-23T10:22:00.894Z,5.93
2023-10-23T10:27:05.205Z,7.03
2023-10-23T10:32:14.172Z,7.90
2023-10-23T10:37:25.187Z,12.25
2023-10-23T10:42:30.885Z,15.05
2023-10-23T10:47:55.669Z,13.10
2023-10-23T10:53:03.542Z,12.75
2023-10-23T10:58:06.173Z,12.10
2023-10-23T11:03:11.221Z,9.95
2023-10-23T11:08:14.518Z,11.73
2023-10-23T11:13:25.706Z,10.00
2023-10-23T11:18:30.973Z,10.52
2023-10-23T11:23:37.285Z,9.02
2023-10-23T11:28:41.671Z,10.68
2023-10-23T11:33:51.937Z,10.75
2023-10-23T11:38:58.750Z,10.15
2023-10-23T11:44:02.371Z,9.27
2023-10-23T11:49:06.115Z,7.35
2023-10-23T11:54:08.312Z,8.05
2023-10-23T11:59:20.686Z,8.93
2023-10-23T12:04:37.073Z,7.75
2023-10-23T12:09:39.471Z,8.05
2023-10-23T12:14:41.726Z,7.78
2023-10-23T12:19:48.020Z,7.57
2023-10-23T12:24:52.368Z,7.65
2023-10-23T12:30:06.395Z,7.65
2023-10-23T12:35:15.289Z,7.20
2023-10-23T12:40:17.762Z,7.18
2023-10-23T12:45:24.055Z,5.53
2023-10-23T12:50:27.479Z,7.18
2023-10-23T12:55:30.846Z,6.70
2023-10-23T13:00:34.298Z,7.00
2023-10-23T13:07:22.712Z,7.40
2023-10-23T13:12:25.057Z,7.00
2023-10-23T13:17:27.337Z,6.97
2023-10-23T13:22:32.929Z,7.20
2023-10-23T13:27:41.808Z,7.32
2023-10-23T13:32:44.159Z,7.47
2023-10-23T13:37:47.329Z,6.70
2023-10-23T13:42:51.025Z,6.07
2023-10-23T13:48:00.865Z,5.65
2023-10-23T13:53:09.157Z,6.00
2023-10-23T13:58:11.942Z,5.70
2023-10-23T14:03:19.951Z,6.00
2023-10-23T14:08:34.150Z,5.65
2023-10-23T14:18:55.353Z,5.30
2023-10-23T14:24:01.991Z,5.95
2023-10-23T14:29:09.009Z,5.50
2023-10-23T14:34:27.712Z,6.22
2023-10-23T14:39:37.121Z,5.40
2023-10-23T14:44:45.927Z,5.88
2023-10-23T14:49:50.291Z,5.47
2023-10-23T14:54:55.999Z,5.63
2023-10-23T15:00:01.598Z,5.63
2023-10-23T15:05:09.190Z,5.75
2023-10-23T15:10:17.434Z,5.28
2023-10-23T15:15:34.961Z,5.20
2023-10-23T15:20:39.980Z,6.05
2023-10-23T15:25:43.754Z,5.60
2023-10-23T15:30:52.227Z,5.82
2023-10-23T15:35:59.156Z,8.73
2023-10-23T15:41:09.429Z,6.07
2023-10-23T15:51:28.956Z,5.95
2023-10-23T15:56:44.212Z,6.55
2023-10-23T16:01:49.085Z,7.05
2023-10-23T16:06:59.553Z,7.70
2023-10-23T16:12:10.058Z,9.65
2023-10-23T16:17:21.724Z,12.65
2023-10-23T16:22:37.144Z,12.43
2023-10-23T16:27:40.670Z,11.70
2023-10-23T16:32:44.177Z,20.10
2023-10-23T16:37:55.080Z,22.63
2023-10-23T16:42:59.108Z,28.75
2023-10-23T16:48:11.128Z,37.60
2023-10-23T16:53:15.274Z,26.60
2023-10-23T17:03:41.861Z,36.58
2023-10-23T17:09:13.559Z,28.77
2023-10-23T17:14:17.431Z,26.02
2023-10-23T17:19:20.025Z,31.85
2023-10-23T17:24:32.842Z,30.70
2023-10-23T17:29:38.130Z,43.42
2023-10-23T17:34:44.318Z,41.05
2023-10-23T17:39:50.182Z,36.55
2023-10-23T17:44:57.884Z,37.38
2023-10-23T17:50:02.321Z,39.33
2023-10-23T17:55:09.087Z,36.15
2023-10-23T18:00:12.351Z,33.40
2023-10-23T18:05:35.846Z,33.60
2023-10-23T18:10:39.341Z,29.60
2023-10-23T18:15:42.394Z,25.50
2023-10-23T18:20:48.474Z,25.65
2023-10-23T18:25:53.337Z,27.23
2023-10-23T18:30:57.471Z,25.48
2023-10-23T18:41:23.691Z,21.67
2023-10-23T18:46:34.423Z,22.00
2023-10-23T18:51:45.542Z,24.45
2023-10-23T18:56:49.533Z,29.83
2023-10-23T19:01:52.854Z,40.08
2023-10-23T19:07:02.220Z,30.75
2023-10-23T19:12:13.249Z,28.45
2023-10-23T19:17:28.753Z,30.70
2023-10-23T19:22:57.218Z,28.08
2023-10-23T19:28:19.774Z,24.85
2023-10-23T19:33:31.254Z,24.10
2023-10-23T19:38:35.209Z,22.77
2023-10-23T19:43:51.076Z,23.20
2023-10-23T19:48:57.667Z,24.42
2023-10-23T19:54:03.990Z,24.25
2023-10-23T19:59:27.649Z,22.40
2023-10-23T20:04:30.120Z,21.33
2023-10-23T20:09:33.024Z,22.08
2023-10-23T20:14:44.396Z,20.85
2023-10-23T20:19:59.698Z,20.35
2023-10-23T20:25:05.445Z,23.25
2023-10-23T20:30:31.428Z,24.73
2023-10-23T20:35:50.504Z,22.27
2023-10-23T20:40:57.795Z,25.65
2023-10-23T20:46:00.413Z,27.83
2023-10-23T20:51:15.008Z,26.33
2023-10-23T20:56:17.409Z,25.30
2023-10-23T21:01:30.593Z,28.02
2023-10-23T21:06:36.464Z,23.58
2023-10-23T21:11:40.810Z,27.33
2023-10-23T21:16:44.171Z,26.95
2023-10-23T21:21:47.522Z,26.67
2023-10-23T21:26:59.295Z,30.25
2023-10-23T21:32:02.146Z,31.23
2023-10-23T21:37:05.872Z,31.00
2023-10-23T21:42:18.222Z,32.50
2023-10-23T21:47:25.625Z,30.10
2023-10-23T21:52:30.230Z,27.95
2023-10-23T21:57:42.579Z,31.15
2023-10-23T22:02:45.182Z,26.50
2023-10-23T22:07:48.719Z,24.38
2023-10-23T22:12:50.965Z,25.20
2023-10-23T22:17:54.281Z,25.88
2023-10-23T22:22:57.493Z,28.00
2023-10-23T22:28:00.534Z,25.38
2023-10-23T22:33:15.651Z,28.05
2023-10-23T22:38:23.796Z,27.42
2023-10-23T22:43:33.042Z,25.83
2023-10-23T22:48:35.331Z,27.90
2023-10-23T22:53:38.968Z,26.88
2023-10-23T22:58:45.981Z,28.75
2023-10-23T23:03:48.709Z,28.25
2023-10-23T23:08:52.018Z,27.02
2023-10-23T23:14:30.573Z,25.75
2023-10-23T23:19:38.603Z,27.60
2023-10-23T23:24:40.768Z,27.00
2023-10-23T23:29:42.884Z,26.45
2023-10-23T23:34:45.963Z,27.73
2023-10-23T23:39:54.090Z,29.90
2023-10-23T23:44:58.093Z,29.70
2023-10-23T23:50:00.149Z,51.47
2023-10-23T23:55:19.398Z,45.10
